Time;durP1;ratioP1;P1;durP2;ratioP2;P2;SDS_P1;SDS_P2;PMS_P1;PMS_P2;Temp;Humidity;BMP_temperature;BMP_pressure;BME280_temperature;BME280_humidity;BME280_pressure;Samples;Min_cycle;Max_cycle;Signal;HPM_P1;HPM_P2
2023/10/04 00:00:59;;;;;;;11.37;6.70;;;12.90;99.90;;;;;;4920635;29;20215;-82
2023/10/04 00:03:26;;;;;;;11.17;6.30;;;12.90;99.90;;;;;;4921147;29;20298;-82
2023/10/04 00:05:54;;;;;;;12.63;7.27;;;13.00;99.90;;;;;;4918766;29;20600;-82
2023/10/04 00:08:23;;;;;;;12.43;6.77;;;13.00;99.90;;;;;;4920117;29;20254;-80
2023/10/04 00:10:50;;;;;;;17.00;7.10;;;13.10;99.90;;;;;;4920286;29;20219;-80
2023/10/04 00:13:17;;;;;;;10.93;6.07;;;13.00;99.90;;;;;;4919917;29;20211;-81
2023/10/04 00:15:45;;;;;;;10.93;6.20;;;13.00;99.90;;;;;;4919979;29;20218;-82
2023/10/04 00:18:14;;;;;;;11.10;5.53;;;12.90;99.90;;;;;;4920152;29;20247;-82
2023/10/04 00:20:43;;;;;;;11.50;6.10;;;13.00;99.90;;;;;;4920507;29;20215;-82
2023/10/04 00:23:13;;;;;;;10.87;5.43;;;13.00;99.90;;;;;;4919775;29;20592;-80
2023/10/04 00:25:40;;;;;;;11.67;6.40;;;12.90;99.90;;;;;;4919756;29;20204;-81
2023/10/04 00:28:07;;;;;;;12.40;6.70;;;12.90;99.90;;;;;;4919635;29;20220;-80
2023/10/04 00:30:35;;;;;;;13.40;5.93;;;12.90;99.90;;;;;;4928221;29;20214;-82
2023/10/04 00:33:06;;;;;;;10.87;5.30;;;12.90;99.90;;;;;;4938820;29;20203;-81
2023/10/04 00:35:32;;;;;;;10.47;5.73;;;12.90;99.90;;;;;;4938872;29;20317;-81
2023/10/04 00:38:00;;;;;;;11.33;5.60;;;12.90;99.90;;;;;;4938559;29;20234;-82
2023/10/04 00:40:28;;;;;;;10.60;5.40;;;12.90;99.90;;;;;;4939162;29;20218;-82
2023/10/04 00:42:56;;;;;;;12.73;5.17;;;13.00;99.90;;;;;;4938396;29;20663;-81
2023/10/04 00:45:24;;;;;;;10.77;5.60;;;12.80;99.90;;;;;;4938618;29;20215;-81
2023/10/04 00:47:56;;;;;;;10.77;5.47;;;12.90;99.90;;;;;;4938555;29;20231;-81
2023/10/04 00:50:27;;;;;;;9.87;5.13;;;12.80;99.90;;;;;;4939023;29;20201;-81
2023/10/04 00:53:00;;;;;;;12.20;6.23;;;12.80;99.90;;;;;;4938921;29;20236;-82
2023/10/04 00:55:29;;;;;;;12.03;4.93;;;12.70;99.90;;;;;;4939413;29;20710;-82
2023/10/04 00:57:57;;;;;;;9.13;4.90;;;12.80;99.90;;;;;;4938679;29;20227;-82
2023/10/04 01:00:25;;;;;;;12.67;5.10;;;12.70;99.90;;;;;;4938360;29;20211;-82
2023/10/04 01:02:52;;;;;;;8.47;4.47;;;12.70;99.90;;;;;;4938817;29;20235;-81
2023/10/04 01:05:23;;;;;;;11.87;4.57;;;12.60;99.90;;;;;;4938704;29;20210;-81
2023/10/04 01:07:52;;;;;;;11.73;4.73;;;12.70;99.90;;;;;;4938699;29;20262;-82
2023/10/04 01:10:24;;;;;;;10.57;4.70;;;12.70;99.90;;;;;;4938183;29;20250;-80
2023/10/04 01:12:52;;;;;;;10.70;5.50;;;12.60;99.90;;;;;;4938059;28;20217;-82
2023/10/04 01:15:30;;;;;;;9.07;4.77;;;12.70;99.90;;;;;;4937962;29;20206;-82
2023/10/04 01:17:57;;;;;;;8.10;4.93;;;12.70;99.90;;;;;;4938288;29;20624;-82
2023/10/04 01:20:24;;;;;;;14.30;5.80;;;12.70;99.90;;;;;;4937883;29;20305;-82
2023/10/04 01:22:54;;;;;;;10.13;5.23;;;12.60;99.90;;;;;;4938556;29;20203;-82
2023/10/04 01:25:21;;;;;;;8.93;4.80;;;12.60;99.90;;;;;;4936889;29;20684;-82
2023/10/04 01:27:48;;;;;;;10.57;5.83;;;12.70;99.90;;;;;;4938393;29;20223;-80
2023/10/04 01:30:16;;;;;;;8.50;5.07;;;12.70;99.90;;;;;;4937542;29;20207;-82
2023/10/04 01:32:43;;;;;;;11.60;5.07;;;12.70;99.90;;;;;;4938322;29;20270;-82
2023/10/04 01:35:11;;;;;;;9.53;4.67;;;12.70;99.90;;;;;;4938392;29;20262;-82
2023/10/04 01:37:39;;;;;;;11.07;4.60;;;12.70;99.90;;;;;;4938427;29;20657;-80
2023/10/04 01:40:12;;;;;;;8.80;4.30;;;12.70;99.90;;;;;;4938433;29;20234;-80
2023/10/04 01:42:40;;;;;;;13.03;4.77;;;12.70;99.90;;;;;;4938637;29;20195;-80
2023/10/04 01:45:11;;;;;;;9.50;4.27;;;12.70;99.90;;;;;;4936748;29;20293;-81
2023/10/04 01:47:40;;;;;;;8.37;4.10;;;12.70;99.90;;;;;;4936475;29;20240;-81
2023/10/04 01:50:08;;;;;;;11.73;4.57;;;12.80;99.90;;;;;;4938436;29;20722;-80
2023/10/04 01:52:35;;;;;;;10.37;4.40;;;12.70;99.90;;;;;;4938000;29;20302;-82
2023/10/04 01:55:05;;;;;;;9.23;4.83;;;12.70;99.90;;;;;;4937791;29;20213;-82
2023/10/04 01:57:33;;;;;;;10.23;4.83;;;12.70;99.90;;;;;;4938375;29;20242;-82
2023/10/04 02:00:01;;;;;;;11.47;4.70;;;12.60;99.90;;;;;;4937849;29;20203;-81
2023/10/04 02:02:28;;;;;;;10.17;5.20;;;12.60;99.90;;;;;;4937855;29;20214;-82
2023/10/04 02:04:54;;;;;;;10.30;5.33;;;12.60;99.90;;;;;;4937602;29;20297;-81
2023/10/04 02:07:23;;;;;;;12.47;5.43;;;12.60;99.90;;;;;;4937532;29;20237;-81
2023/10/04 02:09:51;;;;;;;16.33;4.87;;;12.60;99.90;;;;;;4937673;29;20258;-82
2023/10/04 02:12:18;;;;;;;11.53;5.03;;;12.60;99.90;;;;;;4937859;29;20275;-81
2023/10/04 02:14:46;;;;;;;11.27;5.60;;;12.60;99.90;;;;;;4937899;29;20207;-82
2023/10/04 02:17:16;;;;;;;12.37;6.07;;;12.60;99.90;;;;;;4937897;29;20583;-81
2023/10/04 02:19:43;;;;;;;11.50;5.30;;;12.60;99.90;;;;;;4937777;29;20280;-82
2023/10/04 02:22:12;;;;;;;10.87;5.87;;;12.60;99.90;;;;;;4940385;29;20251;-82
2023/10/04 02:24:39;;;;;;;10.73;5.27;;;12.60;99.90;;;;;;4941933;29;20215;-81
2023/10/04 02:27:08;;;;;;;10.80;5.47;;;12.50;99.90;;;;;;4942036;29;20222;-81
2023/10/04 02:29:35;;;;;;;10.93;6.13;;;12.50;99.90;;;;;;4941053;29;20227;-82
2023/10/04 02:32:08;;;;;;;11.40;5.97;;;12.60;99.90;;;;;;4941311;29;20258;-80
2023/10/04 02:34:35;;;;;;;14.97;5.53;;;12.60;99.90;;;;;;4941549;29;20207;-81
2023/10/04 02:37:06;;;;;;;9.30;5.27;;;12.60;99.90;;;;;;4941837;29;20663;-80
2023/10/04 02:39:33;;;;;;;9.50;6.17;;;12.60;99.90;;;;;;4941005;29;20235;-82
2023/10/04 02:42:00;;;;;;;10.80;5.73;;;12.60;99.90;;;;;;4939992;29;20531;-82
2023/10/04 02:44:27;;;;;;;12.07;5.73;;;12.60;99.90;;;;;;4941408;29;20211;-81
2023/10/04 02:46:55;;;;;;;11.23;5.73;;;12.60;99.90;;;;;;4941264;29;20683;-81
2023/10/04 02:49:23;;;;;;;10.30;5.93;;;12.60;99.90;;;;;;4941062;29;20231;-81
2023/10/04 02:51:50;;;;;;;11.77;6.43;;;12.60;99.90;;;;;;4941382;29;20203;-81
2023/10/04 02:54:17;;;;;;;12.20;5.60;;;12.60;99.90;;;;;;4941978;29;20215;-80
2023/10/04 02:56:45;;;;;;;11.60;5.43;;;12.60;99.90;;;;;;4941787;29;20210;-81
2023/10/04 02:59:16;;;;;;;13.33;5.63;;;12.60;99.90;;;;;;4941474;29;20226;-80
2023/10/04 03:01:43;;;;;;;11.97;6.23;;;12.60;99.90;;;;;;4941010;29;20218;-81
2023/10/04 03:04:11;;;;;;;12.17;5.87;;;12.60;99.90;;;;;;4941161;29;20203;-81
2023/10/04 03:06:40;;;;;;;11.00;5.77;;;12.60;99.90;;;;;;4941120;29;20587;-81
2023/10/04 03:09:08;;;;;;;11.07;5.77;;;12.70;99.90;;;;;;4940792;29;20699;-80
2023/10/04 03:11:36;;;;;;;11.73;5.80;;;12.70;99.90;;;;;;4940597;29;20215;-81
2023/10/04 03:14:06;;;;;;;14.33;5.60;;;12.80;99.90;;;;;;4941000;29;20211;-81
2023/10/04 03:16:34;;;;;;;11.20;5.90;;;12.80;99.90;;;;;;4940837;29;20295;-80
2023/10/04 03:19:03;;;;;;;8.50;5.60;;;12.80;99.90;;;;;;4940948;29;20251;-81
2023/10/04 03:21:31;;;;;;;11.10;5.23;;;12.90;99.90;;;;;;4941097;29;20575;-81
2023/10/04 03:24:00;;;;;;;10.60;5.40;;;13.00;99.90;;;;;;4940540;29;20215;-81
2023/10/04 03:26:29;;;;;;;10.63;4.67;;;13.00;99.90;;;;;;4940080;29;20258;-81
2023/10/04 03:28:56;;;;;;;9.33;5.00;;;13.00;99.90;;;;;;4941099;29;20227;-81
2023/10/04 03:31:24;;;;;;;13.10;5.07;;;12.90;99.90;;;;;;4941012;29;20238;-81
2023/10/04 03:33:53;;;;;;;10.93;5.23;;;13.00;99.90;;;;;;4940762;29;20306;-82
2023/10/04 03:36:19;;;;;;;8.20;5.33;;;13.00;99.90;;;;;;4941333;29;20211;-81
2023/10/04 03:38:49;;;;;;;10.07;5.13;;;13.00;99.90;;;;;;4940917;29;20329;-81
2023/10/04 03:41:19;;;;;;;10.40;5.17;;;13.10;99.90;;;;;;4939888;29;20306;-82
2023/10/04 03:43:46;;;;;;;10.10;4.27;;;13.10;99.90;;;;;;4940629;29;20262;-82
2023/10/04 03:46:18;;;;;;;14.77;5.47;;;13.20;99.90;;;;;;4940684;29;20206;-81
2023/10/04 03:48:45;;;;;;;11.33;5.07;;;13.10;99.90;;;;;;4940795;29;20241;-81
2023/10/04 03:51:13;;;;;;;11.07;5.33;;;13.10;99.90;;;;;;4940631;29;20242;-81
2023/10/04 03:53:42;;;;;;;10.70;5.50;;;13.10;99.90;;;;;;4940416;29;20683;-80
2023/10/04 03:56:10;;;;;;;10.37;5.50;;;13.10;99.90;;;;;;4940016;29;20218;-80
2023/10/04 03:58:40;;;;;;;11.77;5.27;;;13.10;99.90;;;;;;4939142;29;20589;-82
2023/10/04 04:01:08;;;;;;;10.27;5.43;;;13.10;99.90;;;;;;4940137;29;20199;-81
2023/10/04 04:03:35;;;;;;;13.67;5.40;;;13.10;99.90;;;;;;4940405;29;20237;-82
2023/10/04 04:06:04;;;;;;;12.37;4.80;;;13.10;99.90;;;;;;4940126;29;20257;-81
2023/10/04 04:08:31;;;;;;;11.33;5.20;;;13.00;99.90;;;;;;4939752;29;20237;-81
2023/10/04 04:10:58;;;;;;;12.30;4.90;;;13.00;99.90;;;;;;4940267;29;20211;-81
2023/10/04 04:13:25;;;;;;;11.07;5.20;;;13.00;99.90;;;;;;4939764;29;20215;-81
2023/10/04 04:15:53;;;;;;;9.13;5.00;;;13.00;99.90;;;;;;4939792;29;20209;-82
2023/10/04 04:18:21;;;;;;;14.73;5.50;;;13.00;99.90;;;;;;4939970;29;20249;-81
2023/10/04 04:20:48;;;;;;;10.80;5.50;;;13.00;99.90;;;;;;4939683;29;20293;-81
2023/10/04 04:23:15;;;;;;;9.47;5.47;;;13.00;99.90;;;;;;4940123;29;20207;-80
2023/10/04 04:25:43;;;;;;;9.53;5.10;;;13.00;99.90;;;;;;4940359;29;20837;-81
2023/10/04 04:28:12;;;;;;;13.47;5.40;;;12.90;99.90;;;;;;4939835;29;20255;-81
2023/10/04 04:30:39;;;;;;;10.73;5.83;;;12.90;99.90;;;;;;4939904;29;20671;-80
2023/10/04 04:33:08;;;;;;;9.57;5.97;;;13.00;99.90;;;;;;4940196;29;20303;-82
2023/10/04 04:35:51;;;;;;;9.37;5.57;;;12.80;99.90;;;;;;4939790;29;20209;-81
2023/10/04 04:38:19;;;;;;;11.53;5.73;;;12.80;99.90;;;;;;4939428;29;20731;-82
2023/10/04 04:40:48;;;;;;;9.73;5.67;;;12.70;99.90;;;;;;4939246;29;20738;-82
2023/10/04 04:43:34;;;;;;;11.83;6.43;;;12.70;99.90;;;;;;4939736;29;20207;-82
2023/10/04 04:46:01;;;;;;;13.73;5.80;;;12.70;99.90;;;;;;4939296;29;20639;-82
2023/10/04 04:48:35;;;;;;;10.93;6.07;;;12.70;99.90;;;;;;4939178;29;20602;-81
2023/10/04 04:51:08;;;;;;;12.43;6.07;;;12.70;99.90;;;;;;4941616;29;20682;-81
2023/10/04 04:53:34;;;;;;;13.47;6.73;;;12.60;99.90;;;;;;4939311;29;20187;-82
2023/10/04 04:56:02;;;;;;;13.63;6.80;;;12.60;99.90;;;;;;4941092;29;20207;-82
2023/10/04 04:58:31;;;;;;;12.80;7.23;;;12.60;99.90;;;;;;4940651;29;20270;-81
2023/10/04 05:01:00;;;;;;;13.00;6.90;;;12.60;99.90;;;;;;4939001;29;20210;-81
2023/10/04 05:03:29;;;;;;;11.50;7.10;;;12.60;99.90;;;;;;4938686;29;20240;-80
2023/10/04 05:05:56;;;;;;;12.57;7.57;;;12.70;99.90;;;;;;4939091;29;20214;-81
2023/10/04 05:08:24;;;;;;;16.87;7.70;;;12.60;99.90;;;;;;4938490;29;20239;-80
2023/10/04 05:10:51;;;;;;;16.80;8.30;;;13.00;99.90;;;;;;4938964;29;20221;-81
2023/10/04 05:13:18;;;;;;;14.10;7.80;;;12.60;99.90;;;;;;4939253;29;20297;-83
2023/10/04 05:15:46;;;;;;;14.30;7.97;;;12.60;99.90;;;;;;4938605;29;20191;-82
2023/10/04 05:18:16;;;;;;;19.13;10.33;;;12.60;99.90;;;;;;4938859;29;20668;-82
2023/10/04 05:20:45;;;;;;;14.37;9.03;;;12.60;99.90;;;;;;4942265;29;20400;-82
2023/10/04 05:23:12;;;;;;;18.07;10.47;;;12.60;99.90;;;;;;4938012;29;20294;-82
2023/10/04 05:25:39;;;;;;;14.00;9.77;;;12.60;99.90;;;;;;4938584;29;20627;-81
2023/10/04 05:28:09;;;;;;;15.97;9.20;;;12.60;99.90;;;;;;4938401;29;20231;-82
2023/10/04 05:30:37;;;;;;;14.23;9.57;;;12.60;99.90;;;;;;4938788;28;20290;-81
2023/10/04 05:33:06;;;;;;;15.60;8.77;;;12.50;99.90;;;;;;4938272;29;20242;-82
2023/10/04 05:35:33;;;;;;;15.83;9.87;;;12.50;99.90;;;;;;4937517;29;20294;-81
2023/10/04 05:38:03;;;;;;;17.10;9.60;;;12.50;99.90;;;;;;4936770;29;20235;-81
2023/10/04 05:40:30;;;;;;;16.60;9.27;;;12.50;99.90;;;;;;4938477;29;20202;-81
2023/10/04 05:42:58;;;;;;;17.03;9.60;;;12.50;99.90;;;;;;4938082;29;20217;-80
2023/10/04 05:45:26;;;;;;;12.60;9.17;;;12.60;99.90;;;;;;4937883;29;20686;-81
2023/10/04 05:47:53;;;;;;;15.30;8.80;;;12.60;99.90;;;;;;4938509;29;20670;-80
2023/10/04 05:50:21;;;;;;;14.10;9.10;;;12.60;99.90;;;;;;4936724;29;20207;-80
2023/10/04 05:52:48;;;;;;;17.87;9.73;;;12.60;99.90;;;;;;4938516;29;20575;-80
2023/10/04 05:55:17;;;;;;;14.03;9.83;;;12.60;99.90;;;;;;4938142;29;20301;-79
2023/10/04 05:57:45;;;;;;;14.73;9.60;;;12.60;99.90;;;;;;4941216;29;20207;-80
2023/10/04 06:00:24;;;;;;;14.67;9.73;;;12.60;99.90;;;;;;4941571;29;20239;-80
2023/10/04 06:02:52;;;;;;;14.53;10.00;;;12.60;99.90;;;;;;4942012;28;20210;-81
2023/10/04 06:05:20;;;;;;;17.20;10.97;;;12.60;99.90;;;;;;4941125;29;20621;-80
2023/10/04 06:07:48;;;;;;;18.33;10.80;;;12.60;99.90;;;;;;4941496;29;20569;-80
2023/10/04 06:10:18;;;;;;;15.63;10.47;;;12.60;99.90;;;;;;4942054;29;20209;-81
2023/10/04 06:12:46;;;;;;;18.73;11.10;;;12.60;99.90;;;;;;4941850;29;20663;-80
2023/10/04 06:15:20;;;;;;;19.07;11.60;;;12.60;99.90;;;;;;4940933;29;20206;-80
2023/10/04 06:17:48;;;;;;;17.30;11.53;;;12.60;99.90;;;;;;4940935;29;20226;-81
2023/10/04 06:20:28;;;;;;;16.17;11.07;;;12.60;99.90;;;;;;4940991;29;20214;-79
2023/10/04 06:22:56;;;;;;;16.30;10.30;;;12.50;99.90;;;;;;4941234;29;20195;-81
2023/10/04 06:25:26;;;;;;;23.93;12.07;;;12.50;99.90;;;;;;4941028;29;20249;-81
2023/10/04 06:27:55;;;;;;;18.03;10.47;;;12.50;99.90;;;;;;4940814;29;20649;-81
2023/10/04 06:30:23;;;;;;;17.70;11.20;;;12.50;99.90;;;;;;4940718;29;20255;-79
2023/10/04 06:32:52;;;;;;;19.17;11.10;;;12.60;99.90;;;;;;4939997;29;20263;-79
2023/10/04 06:35:22;;;;;;;22.30;12.30;;;13.20;99.90;;;;;;4940944;29;20207;-80
2023/10/04 06:37:50;;;;;;;17.03;10.70;;;12.60;99.90;;;;;;4940308;29;20711;-80
2023/10/04 06:40:19;;;;;;;15.40;10.43;;;12.60;99.90;;;;;;4940888;29;20719;-80
2023/10/04 06:42:48;;;;;;;16.67;10.50;;;12.60;99.90;;;;;;4940548;29;20209;-81
2023/10/04 06:45:16;;;;;;;19.43;11.40;;;12.70;99.90;;;;;;4939813;29;20207;-81
2023/10/04 06:47:44;;;;;;;15.23;9.50;;;12.70;99.90;;;;;;4940667;29;20254;-80
2023/10/04 06:50:15;;;;;;;13.27;9.57;;;12.70;99.90;;;;;;4940672;29;20675;-80
2023/10/04 06:52:42;;;;;;;18.70;9.73;;;12.80;99.90;;;;;;4940438;29;20214;-82
2023/10/04 06:55:10;;;;;;;16.07;10.17;;;12.80;99.90;;;;;;4942086;29;20644;-79
2023/10/04 06:57:37;;;;;;;15.70;9.23;;;12.90;99.90;;;;;;4940952;29;20203;-78
2023/10/04 07:00:13;;;;;;;16.37;9.80;;;12.90;99.90;;;;;;4937897;29;20214;-78
2023/10/04 07:02:43;;;;;;;15.93;10.03;;;12.90;99.90;;;;;;4937130;29;20230;-79
2023/10/04 07:05:10;;;;;;;16.83;10.60;;;13.00;99.90;;;;;;4942536;29;20202;-78
2023/10/04 07:07:37;;;;;;;15.97;8.93;;;13.00;99.90;;;;;;4944610;29;20237;-78
2023/10/04 07:10:07;;;;;;;17.67;10.23;;;13.10;99.90;;;;;;4937210;29;20212;-78
2023/10/04 07:12:34;;;;;;;17.73;10.73;;;13.10;99.90;;;;;;4934940;29;20210;-79
2023/10/04 07:15:01;;;;;;;15.53;9.50;;;13.20;99.90;;;;;;4938294;29;20593;-79
2023/10/04 07:17:31;;;;;;;18.80;10.57;;;13.20;99.90;;;;;;4939231;29;20245;-79
2023/10/04 07:19:58;;;;;;;17.70;10.43;;;13.30;99.90;;;;;;4945132;29;20216;-79
2023/10/04 07:22:29;;;;;;;18.43;9.63;;;13.30;99.90;;;;;;4936926;29;20731;-78
2023/10/04 07:24:57;;;;;;;15.90;9.77;;;13.30;99.90;;;;;;4939059;29;20215;-78
2023/10/04 07:27:24;;;;;;;15.87;9.80;;;13.40;99.90;;;;;;4947376;29;20214;-79
2023/10/04 07:29:52;;;;;;;15.03;10.17;;;14.00;99.90;;;;;;4940711;29;20219;-79
2023/10/04 07:32:20;;;;;;;16.20;10.20;;;14.60;99.90;;;;;;4937883;29;20217;-79
2023/10/04 07:34:50;;;;;;;12.70;8.47;;;14.70;99.90;;;;;;4940238;29;20208;-81
2023/10/04 07:37:18;;;;;;;14.70;9.37;;;14.20;99.90;;;;;;4940415;29;20253;-80
2023/10/04 07:39:45;;;;;;;14.25;9.48;;;14.10;99.90;;;;;;4938493;29;20223;-79
2023/10/04 07:42:12;;;;;;;16.53;9.40;;;13.90;99.90;;;;;;4937717;29;20235;-77
2023/10/04 07:44:39;;;;;;;15.83;10.10;;;13.90;99.90;;;;;;4942420;29;20210;-78
2023/10/04 07:47:06;;;;;;;16.37;9.47;;;13.90;99.90;;;;;;4939220;29;20216;-78
2023/10/04 07:49:33;;;;;;;16.83;9.90;;;13.90;99.90;;;;;;4935994;29;20267;-78
2023/10/04 07:52:03;;;;;;;16.00;9.77;;;13.90;99.90;;;;;;4933437;29;20214;-79
2023/10/04 07:54:31;;;;;;;18.47;10.30;;;13.90;99.90;;;;;;4941062;29;20203;-79
2023/10/04 07:56:58;;;;;;;20.33;10.13;;;13.90;99.90;;;;;;4938510;29;20303;-79
2023/10/04 07:59:26;;;;;;;16.97;10.33;;;14.00;99.90;;;;;;4937104;29;20231;-83
2023/10/04 08:01:55;;;;;;;15.33;9.53;;;14.10;99.90;;;;;;4935899;29;20203;-80
2023/10/04 08:04:21;;;;;;;15.57;9.77;;;14.30;99.90;;;;;;4939612;29;20632;-78
2023/10/04 08:06:51;;;;;;;26.30;13.37;;;14.30;99.90;;;;;;4938202;29;20207;-79
2023/10/04 08:09:21;;;;;;;16.00;9.80;;;14.20;99.90;;;;;;4941481;29;20696;-79
2023/10/04 08:11:48;;;;;;;17.95;9.50;;;14.20;99.90;;;;;;4933936;29;20299;-80
2023/10/04 08:14:15;;;;;;;15.57;9.87;;;14.20;99.90;;;;;;4932300;29;20208;-79
2023/10/04 08:16:42;;;;;;;15.23;9.23;;;14.40;99.90;;;;;;4932942;29;20199;-78
2023/10/04 08:19:09;;;;;;;12.50;9.02;;;14.40;99.90;;;;;;4932899;29;20677;-78
2023/10/04 08:21:37;;;;;;;16.80;9.45;;;14.50;99.90;;;;;;4941689;29;20267;-78
2023/10/04 08:24:04;;;;;;;17.93;9.63;;;14.50;99.90;;;;;;4932238;29;20216;-79
2023/10/04 08:26:33;;;;;;;15.27;9.73;;;14.50;99.90;;;;;;4931297;29;20285;-79
2023/10/04 08:29:00;;;;;;;15.33;9.20;;;14.60;99.90;;;;;;4930981;29;20431;-79
2023/10/04 08:31:27;;;;;;;14.13;8.60;;;14.60;99.90;;;;;;4935961;29;20208;-80
2023/10/04 08:33:54;;;;;;;15.23;9.13;;;14.60;99.90;;;;;;4937488;29;20329;-79
2023/10/04 08:36:21;;;;;;;20.85;10.18;;;14.60;99.90;;;;;;4937147;29;20202;-79
2023/10/04 08:38:48;;;;;;;17.92;10.00;;;14.90;99.90;;;;;;4935936;29;20293;-79
2023/10/04 08:41:17;;;;;;;16.23;9.63;;;14.90;99.90;;;;;;4943497;29;20203;-79
2023/10/04 08:43:45;;;;;;;16.27;10.07;;;14.90;99.90;;;;;;4933212;29;20213;-78
2023/10/04 08:46:12;;;;;;;19.75;10.27;;;14.90;99.90;;;;;;4943114;29;20208;-78
2023/10/04 08:48:39;;;;;;;12.57;9.30;;;15.00;99.90;;;;;;4937257;29;20223;-78
2023/10/04 08:51:16;;;;;;;18.48;10.27;;;15.20;99.90;;;;;;4934543;29;20743;-79
2023/10/04 08:53:52;;;;;;;15.15;10.23;;;15.30;99.90;;;;;;4929891;28;20656;-79
2023/10/04 08:56:20;;;;;;;15.45;9.82;;;15.30;99.90;;;;;;4936147;29;20281;-79
2023/10/04 08:58:48;;;;;;;17.27;10.18;;;15.40;99.90;;;;;;4932498;29;20219;-79
2023/10/04 09:01:20;;;;;;;17.33;10.15;;;15.50;99.90;;;;;;4936917;29;20234;-78
2023/10/04 09:03:48;;;;;;;16.13;10.13;;;15.50;99.90;;;;;;4944126;29;20260;-78
2023/10/04 09:06:15;;;;;;;17.77;9.40;;;15.60;99.90;;;;;;4943107;29;20210;-78
2023/10/04 09:08:43;;;;;;;14.82;9.68;;;15.70;99.90;;;;;;4934938;29;20229;-79
2023/10/04 09:11:11;;;;;;;13.43;8.70;;;15.70;99.90;;;;;;4937767;29;20217;-79
2023/10/04 09:13:47;;;;;;;13.65;9.77;;;15.70;99.90;;;;;;4951599;29;20209;-78
2023/10/04 09:16:28;;;;;;;14.13;9.15;;;15.80;99.90;;;;;;4940361;29;20244;-79
2023/10/04 09:19:07;;;;;;;14.35;8.35;;;15.90;99.90;;;;;;4940989;29;20246;-79
2023/10/04 09:21:35;;;;;;;13.55;8.75;;;16.10;99.90;;;;;;4930739;29;20266;-78
2023/10/04 09:24:08;;;;;;;13.43;8.80;;;16.10;99.90;;;;;;4939215;29;20203;-79
2023/10/04 09:26:37;;;;;;;18.15;9.25;;;15.90;99.90;;;;;;4937300;29;20281;-79
2023/10/04 09:29:06;;;;;;;14.00;8.02;;;16.00;99.90;;;;;;4938879;29;20226;-78
2023/10/04 09:31:46;;;;;;;18.83;8.43;;;16.20;99.90;;;;;;4939791;29;20211;-78
2023/10/04 09:34:14;;;;;;;17.85;8.18;;;16.60;99.90;;;;;;4938570;29;20214;-78
2023/10/04 09:36:42;;;;;;;14.07;8.10;;;16.30;99.90;;;;;;4939409;29;20207;-78
2023/10/04 09:39:11;;;;;;;13.75;7.93;;;16.60;99.90;;;;;;4939208;29;20233;-77
2023/10/04 09:41:43;;;;;;;13.65;8.00;;;17.10;99.90;;;;;;4939681;29;20239;-79
2023/10/04 09:44:23;;;;;;;14.30;7.78;;;17.30;99.90;;;;;;4939960;29;20215;-79
2023/10/04 09:46:56;;;;;;;13.88;8.02;;;17.20;99.90;;;;;;4930750;29;20212;-78
2023/10/04 09:49:23;;;;;;;12.43;6.93;;;16.90;99.90;;;;;;4938670;29;20636;-78
2023/10/04 09:51:53;;;;;;;12.77;7.68;;;16.80;99.90;;;;;;4944879;29;20663;-77
2023/10/04 09:54:20;;;;;;;11.98;7.72;;;16.60;99.90;;;;;;4940736;29;20589;-77
2023/10/04 09:56:47;;;;;;;12.02;7.65;;;16.60;99.90;;;;;;4935374;29;20216;-77
2023/10/04 09:59:19;;;;;;;13.63;7.38;;;16.40;99.90;;;;;;4938556;29;20235;-77
2023/10/04 10:01:52;;;;;;;11.20;6.65;;;16.90;99.90;;;;;;4931926;29;20211;-78
2023/10/04 10:04:25;;;;;;;9.60;6.10;;;17.20;99.90;;;;;;4938932;29;20666;-78
2023/10/04 10:07:06;;;;;;;11.25;7.10;;;17.50;99.90;;;;;;4939423;29;20218;-77
2023/10/04 10:09:35;;;;;;;12.35;6.38;;;17.60;99.90;;;;;;4928405;29;20747;-78
2023/10/04 10:12:03;;;;;;;11.25;6.72;;;17.90;99.90;;;;;;4935128;29;20581;-79
2023/10/04 10:14:32;;;;;;;10.38;6.30;;;17.90;99.90;;;;;;4937949;29;20207;-77
2023/10/04 10:17:00;;;;;;;11.55;6.38;;;18.10;99.90;;;;;;4929022;29;20215;-77
2023/10/04 10:19:29;;;;;;;9.88;6.15;;;18.00;99.90;;;;;;4929561;29;20235;-77
2023/10/04 10:22:11;;;;;;;10.63;5.95;;;18.30;99.90;;;;;;4936689;29;20221;-78
2023/10/04 10:24:48;;;;;;;15.00;5.82;;;18.10;99.90;;;;;;4933348;29;20199;-77
2023/10/04 10:27:19;;;;;;;7.88;4.63;;;17.70;99.90;;;;;;4938851;29;20225;-77
2023/10/04 10:29:47;;;;;;;8.85;5.70;;;18.20;99.90;;;;;;4938670;29;20594;-78
2023/10/04 10:32:15;;;;;;;12.40;5.95;;;18.30;99.90;;;;;;4939356;29;20585;-79
2023/10/04 10:34:44;;;;;;;9.95;5.53;;;18.30;99.90;;;;;;4940953;29;20239;-81
2023/10/04 10:37:18;;;;;;;7.72;5.20;;;18.20;99.90;;;;;;4937868;29;20212;-80
2023/10/04 10:39:46;;;;;;;9.02;5.43;;;18.20;99.90;;;;;;4937667;29;20227;-80
2023/10/04 10:42:14;;;;;;;6.75;4.78;;;18.90;99.90;;;;;;4938561;29;20207;-79
2023/10/04 10:44:41;;;;;;;9.93;4.97;;;18.50;99.90;;;;;;4939572;29;20593;-83
2023/10/04 10:47:22;;;;;;;12.27;5.43;;;18.50;99.90;;;;;;4940652;29;20211;-81
2023/10/04 10:49:56;;;;;;;9.07;5.13;;;18.20;99.90;;;;;;4940701;29;20245;-81
2023/10/04 10:52:26;;;;;;;11.35;4.85;;;18.40;99.90;;;;;;4933235;29;20210;-83
2023/10/04 10:54:53;;;;;;;13.15;4.97;;;18.80;99.90;;;;;;4930867;29;20663;-80
2023/10/04 10:57:21;;;;;;;11.80;5.15;;;19.00;99.90;;;;;;4939117;29;20594;-81
2023/10/04 10:59:51;;;;;;;10.13;4.68;;;18.90;99.90;;;;;;4938798;29;20227;-81
2023/10/04 11:02:18;;;;;;;10.05;4.78;;;19.30;99.90;;;;;;4939245;29;20203;-82
2023/10/04 11:04:45;;;;;;;9.32;5.22;;;19.10;99.90;;;;;;4940951;29;20207;-81
2023/10/04 11:07:13;;;;;;;6.88;4.57;;;19.20;99.90;;;;;;4940200;29;20206;-80
2023/10/04 11:09:40;;;;;;;11.20;4.75;;;19.20;99.90;;;;;;4932351;29;20235;-81
2023/10/04 11:12:08;;;;;;;10.32;4.82;;;18.70;99.90;;;;;;4932874;29;20215;-80
2023/10/04 11:14:36;;;;;;;8.77;4.68;;;18.60;99.90;;;;;;4934128;29;20224;-81
2023/10/04 11:17:05;;;;;;;9.93;4.43;;;18.60;99.90;;;;;;4943493;29;20214;-81
2023/10/04 11:19:32;;;;;;;8.13;4.35;;;18.50;99.90;;;;;;4940279;29;20223;-81
2023/10/04 11:22:00;;;;;;;13.05;4.57;;;18.20;99.90;;;;;;4940630;29;20278;-80
2023/10/04 11:24:28;;;;;;;12.50;4.80;;;18.50;99.90;;;;;;4940867;29;20211;-80
2023/10/04 11:26:56;;;;;;;7.85;4.05;;;18.40;99.90;;;;;;4938689;29;20683;-80
2023/10/04 11:29:25;;;;;;;8.65;4.18;;;18.10;99.90;;;;;;4939195;29;20721;-80
2023/10/04 11:31:52;;;;;;;8.82;4.18;;;18.30;99.90;;;;;;4939075;29;20210;-80
2023/10/04 11:34:19;;;;;;;12.02;4.40;;;18.20;99.90;;;;;;4938264;29;20219;-80
2023/10/04 11:36:47;;;;;;;9.27;3.85;;;18.50;99.90;;;;;;4935364;29;20561;-80
2023/10/04 11:39:18;;;;;;;11.10;3.90;;;19.10;99.90;;;;;;4938032;29;20242;-81
2023/10/04 11:41:50;;;;;;;9.15;3.70;;;19.20;99.90;;;;;;4932406;29;20260;-81
2023/10/04 11:44:18;;;;;;;8.55;3.95;;;18.80;99.90;;;;;;4939718;29;20723;-81
2023/10/04 11:46:58;;;;;;;6.38;3.60;;;18.50;99.90;;;;;;4938640;29;20211;-82
2023/10/04 11:49:27;;;;;;;8.15;3.90;;;18.50;99.90;;;;;;4937991;29;20258;-82
2023/10/04 11:51:55;;;;;;;7.78;3.60;;;19.10;99.90;;;;;;4936952;29;20202;-82
2023/10/04 11:54:26;;;;;;;10.43;3.63;;;19.10;99.90;;;;;;4935001;29;20211;-82
2023/10/04 11:56:55;;;;;;;9.88;3.67;;;19.30;99.90;;;;;;4938978;29;20686;-81
2023/10/04 11:59:30;;;;;;;9.75;3.92;;;19.80;99.90;;;;;;4936823;29;20719;-82
2023/10/04 12:01:57;;;;;;;7.03;3.22;;;19.60;99.90;;;;;;4942781;29;20214;-81
2023/10/04 12:04:24;;;;;;;6.80;3.38;;;19.50;99.90;;;;;;4931704;29;20262;-81
2023/10/04 12:06:59;;;;;;;7.00;3.45;;;19.70;99.90;;;;;;4928051;29;20204;-81
2023/10/04 12:09:27;;;;;;;8.40;3.72;;;19.70;99.90;;;;;;4930779;29;20256;-80
2023/10/04 12:11:56;;;;;;;7.18;3.45;;;19.50;99.90;;;;;;4934512;29;20207;-79
2023/10/04 12:14:24;;;;;;;11.50;3.65;;;19.30;99.90;;;;;;4935762;29;20218;-79
2023/10/04 12:16:53;;;;;;;8.45;3.13;;;19.30;99.90;;;;;;4936836;29;20207;-79
2023/10/04 12:19:19;;;;;;;7.75;3.13;;;19.20;99.90;;;;;;4936387;29;20310;-80
2023/10/04 12:21:47;;;;;;;9.82;3.83;;;18.60;99.90;;;;;;4938338;29;20199;-79
2023/10/04 12:24:14;;;;;;;6.03;3.28;;;18.70;99.90;;;;;;4937802;29;20211;-80
2023/10/04 12:26:41;;;;;;;9.85;3.05;;;18.80;99.90;;;;;;4934322;29;20207;-78
2023/10/04 12:29:11;;;;;;;7.40;3.42;;;19.50;99.90;;;;;;4941925;29;20267;-79
2023/10/04 12:31:38;;;;;;;7.90;3.33;;;19.80;99.90;;;;;;4942314;29;20222;-79
2023/10/04 12:34:05;;;;;;;8.80;3.15;;;19.60;99.90;;;;;;4936213;29;20579;-79
2023/10/04 12:36:32;;;;;;;7.38;3.33;;;19.40;99.90;;;;;;4937351;29;20246;-79
2023/10/04 12:38:58;;;;;;;9.40;3.35;;;19.30;99.90;;;;;;4937193;29;20235;-80
2023/10/04 12:41:25;;;;;;;7.72;2.90;;;19.10;99.90;;;;;;4934922;29;20295;-79
2023/10/04 12:43:52;;;;;;;8.38;3.55;;;18.80;99.90;;;;;;4929315;29;20250;-79
2023/10/04 12:46:21;;;;;;;10.27;3.47;;;18.40;99.90;;;;;;4936787;29;20202;-80